Time;durP1;ratioP1;P1;durP2;ratioP2;P2;SDS_P1;SDS_P2;PMS_P1;PMS_P2;Temp;Humidity;BMP_temperature;BMP_pressure;BME280_temperature;BME280_humidity;BME280_pressure;Samples;Min_cycle;Max_cycle;Signal;HPM_P1;HPM_P2
2023/01/20 00:01:31;;;;;;;31.80;19.50;;;;;;;0.90;91.68;99826.89;213622;1270;61281;-74
2023/01/20 00:06:27;;;;;;;33.60;21.00;;;;;;;0.92;91.97;99830.89;213661;1270;65613;-73
2023/01/20 00:11:21;;;;;;;34.10;21.00;;;;;;;0.92;91.64;99835.86;213648;1273;61239;-73
2023/01/20 00:16:14;;;;;;;38.50;23.00;;;;;;;0.90;91.63;99841.43;213643;1274;75665;-74
2023/01/20 00:21:10;;;;;;;41.00;23.80;;;;;;;0.91;91.70;99848.12;213537;1273;72764;-73
2023/01/20 00:26:05;;;;;;;41.90;23.90;;;;;;;0.92;91.69;99850.34;213628;1273;61272;-73
2023/01/20 00:30:58;;;;;;;35.20;21.50;;;;;;;0.91;91.82;99854.23;213819;1270;68152;-74
2023/01/20 00:35:51;;;;;;;41.10;22.70;;;;;;;0.89;91.80;99862.66;213557;1273;61495;-74
2023/01/20 00:40:44;;;;;;;39.90;23.50;;;;;;;0.89;91.95;99871.55;213707;1272;61320;-74
2023/01/20 00:45:37;;;;;;;40.50;23.90;;;;;;;0.89;91.86;99878.90;213682;1276;61365;-73
2023/01/20 00:50:29;;;;;;;32.10;19.70;;;;;;;0.88;91.74;99888.94;213780;1273;61550;-73
2023/01/20 00:55:22;;;;;;;39.00;23.80;;;;;;;0.85;91.39;99893.23;213686;1276;61340;-73
2023/01/20 01:00:20;;;;;;;38.30;22.00;;;;;;;0.85;91.71;99900.39;213689;1273;61402;-74
2023/01/20 01:05:14;;;;;;;40.00;23.20;;;;;;;0.85;91.75;99900.38;213681;1274;72547;-75
2023/01/20 01:10:08;;;;;;;38.40;22.40;;;;;;;0.83;91.70;99904.06;213456;1276;72519;-74
2023/01/20 01:15:01;;;;;;;38.90;23.20;;;;;;;0.83;91.84;99905.75;213926;1274;61329;-74
2023/01/20 01:19:54;;;;;;;40.90;22.30;;;;;;;0.81;91.91;99908.92;213685;1273;61352;-74
2023/01/20 01:24:47;;;;;;;37.10;22.70;;;;;;;0.82;91.94;99915.60;213724;1274;61359;-74
2023/01/20 01:29:40;;;;;;;36.50;21.60;;;;;;;0.82;91.80;99916.64;213654;1273;74596;-74
2023/01/20 01:34:33;;;;;;;37.80;23.30;;;;;;;0.83;91.93;99929.63;213581;1273;71952;-74
2023/01/20 01:39:27;;;;;;;35.20;20.40;;;;;;;0.81;91.94;99937.43;213615;1273;61339;-74
2023/01/20 01:44:20;;;;;;;39.80;22.90;;;;;;;0.80;91.83;99937.70;213680;1273;65387;-74
2023/01/20 01:49:20;;;;;;;29.10;18.40;;;;;;;0.78;91.64;99937.80;213657;1273;61485;-74
2023/01/20 01:54:21;;;;;;;35.70;21.00;;;;;;;0.75;91.94;99941.11;213655;1273;73668;-74
2023/01/20 01:59:16;;;;;;;31.80;19.80;;;;;;;0.76;92.03;99940.42;213696;1272;72420;-74
2023/01/20 02:04:14;;;;;;;37.80;20.50;;;;;;;0.75;91.92;99940.90;213615;1274;61239;-73
2023/01/20 02:09:08;;;;;;;35.40;21.40;;;;;;;0.74;91.84;99941.38;213691;1273;68358;-74
2023/01/20 02:14:01;;;;;;;35.50;21.50;;;;;;;0.74;91.89;99937.45;213786;1270;61250;-74
2023/01/20 02:19:03;;;;;;;36.80;22.40;;;;;;;0.74;92.23;99937.32;213784;1270;76571;-74
2023/01/20 02:24:16;;;;;;;42.40;23.40;;;;;;;0.74;92.13;99951.45;213856;1270;71798;-74
2023/01/20 02:29:18;;;;;;;33.30;18.90;;;;;;;0.74;92.07;99951.80;213822;1270;61298;-74
2023/01/20 02:34:17;;;;;;;35.60;20.80;;;;;;;0.71;92.20;99947.08;213897;1270;66982;-74
2023/01/20 02:39:39;;;;;;;40.50;21.70;;;;;;;0.71;92.41;99950.99;213902;1269;61326;-74
2023/01/20 02:44:40;;;;;;;34.60;18.50;;;;;;;0.69;92.10;99946.30;213816;1273;74743;-74
2023/01/20 02:49:40;;;;;;;38.80;22.70;;;;;;;0.67;92.03;99947.04;213812;1270;73358;-74
2023/01/20 02:54:36;;;;;;;43.00;24.30;;;;;;;0.66;92.13;99944.09;213992;1270;61487;-74
2023/01/20 02:59:38;;;;;;;35.60;20.20;;;;;;;0.66;92.25;99945.13;213875;1270;66985;-74
2023/01/20 03:04:38;;;;;;;39.50;22.40;;;;;;;0.66;92.40;99944.78;213876;1274;61310;-74
2023/01/20 03:09:37;;;;;;;44.30;23.10;;;;;;;0.64;92.22;99950.31;213890;1270;75508;-74
2023/01/20 03:14:31;;;;;;;37.10;23.40;;;;;;;0.65;92.43;99955.30;213767;1270;72420;-74
2023/01/20 03:19:24;;;;;;;41.10;22.70;;;;;;;0.63;92.47;99965.77;213794;1270;62167;-74
2023/01/20 03:24:17;;;;;;;39.30;19.10;;;;;;;0.62;92.67;99967.44;213764;1270;70884;-74
2023/01/20 03:29:11;;;;;;;37.90;20.60;;;;;;;0.61;92.58;99965.02;213658;1270;61390;-74
2023/01/20 03:34:09;;;;;;;40.40;20.90;;;;;;;0.60;92.67;99967.21;213883;1270;74995;-74
2023/01/20 03:39:04;;;;;;;38.10;20.60;;;;;;;0.57;92.37;99975.09;213909;1270;71176;-74
2023/01/20 03:44:38;;;;;;;38.20;21.10;;;;;;;0.56;92.24;99988.02;213857;1270;61286;-74
2023/01/20 03:49:43;;;;;;;40.50;23.20;;;;;;;0.56;92.53;99985.80;212273;1277;67078;-74
2023/01/20 03:54:59;;;;;;;40.60;21.80;;;;;;;0.56;92.62;99997.20;212333;1276;61346;-74
2023/01/20 03:59:53;;;;;;;40.90;22.90;;;;;;;0.57;92.79;100005.11;212209;1276;74142;-74
2023/01/20 04:04:49;;;;;;;40.00;19.80;;;;;;;0.59;92.69;100005.89;212137;1276;72860;-74
2023/01/20 04:09:50;;;;;;;39.00;21.40;;;;;;;0.59;92.69;100031.77;212128;1276;61446;-74
2023/01/20 04:14:43;;;;;;;45.80;23.80;;;;;;;0.60;92.60;100034.39;211981;1279;67000;-74
2023/01/20 04:19:35;;;;;;;41.00;23.70;;;;;;;0.61;92.44;100043.48;211964;1279;61539;-73
2023/01/20 04:24:43;;;;;;;39.50;21.80;;;;;;;0.62;92.65;100057.35;212489;1273;61291;-74
2023/01/20 04:29:36;;;;;;;48.10;23.60;;;;;;;0.64;92.82;100071.23;213782;1273;72615;-74
2023/01/20 04:34:29;;;;;;;43.50;22.30;;;;;;;0.66;92.94;100071.17;213704;1275;61378;-73
2023/01/20 04:39:22;;;;;;;43.50;22.70;;;;;;;0.66;92.67;100073.92;213742;1273;67193;-74
2023/01/20 04:44:15;;;;;;;42.40;20.90;;;;;;;0.67;92.72;100067.80;213686;1273;61298;-74
2023/01/20 04:49:09;;;;;;;44.40;21.80;;;;;;;0.64;92.67;100088.16;213775;1270;73396;-73
2023/01/20 04:54:02;;;;;;;35.50;20.60;;;;;;;0.64;92.69;100089.14;213600;1272;73782;-74
2023/01/20 04:58:54;;;;;;;36.80;18.00;;;;;;;0.64;92.55;100096.34;213654;1272;61285;-73
2023/01/20 05:03:47;;;;;;;34.80;19.00;;;;;;;0.65;92.90;100101.32;213691;1274;61351;-74
2023/01/20 05:08:40;;;;;;;39.90;18.80;;;;;;;0.67;92.97;100100.56;213721;1275;61377;-74
2023/01/20 05:13:37;;;;;;;39.70;19.90;;;;;;;0.68;92.62;100107.61;213766;1273;61361;-74
2023/01/20 05:18:30;;;;;;;39.90;21.30;;;;;;;0.68;92.94;100112.20;213800;1270;74530;-74
2023/01/20 05:23:23;;;;;;;45.10;21.80;;;;;;;0.68;92.81;100119.37;213683;1270;61367;-74
2023/01/20 05:28:15;;;;;;;42.50;21.50;;;;;;;0.69;92.86;100124.02;213756;1270;61486;-74
2023/01/20 05:33:08;;;;;;;44.90;21.20;;;;;;;0.68;92.81;100133.17;213680;1270;61354;-74
2023/01/20 05:38:01;;;;;;;47.10;21.50;;;;;;;0.66;92.59;100146.59;213808;1270;61226;-74
2023/01/20 05:42:54;;;;;;;42.00;22.00;;;;;;;0.65;92.79;100160.70;213722;1270;61396;-74
2023/01/20 05:47:46;;;;;;;40.80;20.50;;;;;;;0.65;92.83;100169.05;213529;1270;61756;-74
2023/01/20 05:52:40;;;;;;;41.50;21.50;;;;;;;0.65;92.77;100179.10;213754;1270;61397;-74
2023/01/20 05:57:33;;;;;;;44.60;21.50;;;;;;;0.65;92.76;100189.50;213694;1270;61310;-73
2023/01/20 06:02:26;;;;;;;40.30;21.70;;;;;;;0.65;92.91;100199.71;213677;1270;61294;-74
2023/01/20 06:07:19;;;;;;;50.20;24.30;;;;;;;0.66;92.97;100210.02;213667;1273;61275;-74
2023/01/20 06:12:12;;;;;;;41.40;20.90;;;;;;;0.66;92.70;100232.02;213371;1272;61477;-73
2023/01/20 06:17:05;;;;;;;37.60;18.90;;;;;;;0.67;92.81;100244.52;213506;1272;61268;-74
2023/01/20 06:21:57;;;;;;;44.80;21.30;;;;;;;0.66;92.78;100264.80;213474;1273;61365;-74
2023/01/20 06:26:51;;;;;;;39.10;19.10;;;;;;;0.64;92.74;100280.73;213492;1274;61255;-74
2023/01/20 06:31:44;;;;;;;41.20;20.10;;;;;;;0.63;92.69;100292.95;213661;1272;61369;-74
2023/01/20 06:36:37;;;;;;;44.90;22.00;;;;;;;0.63;92.91;100301.48;213530;1271;61315;-73
2023/01/20 06:41:30;;;;;;;40.90;21.40;;;;;;;0.65;92.97;100302.59;213633;1273;61991;-74
2023/01/20 06:46:23;;;;;;;43.60;20.00;;;;;;;0.68;93.26;100306.50;213817;1273;61316;-73
2023/01/20 06:51:19;;;;;;;43.20;21.20;;;;;;;0.70;93.09;100308.67;213680;1273;61358;-74
2023/01/20 06:56:13;;;;;;;37.60;19.50;;;;;;;0.72;92.91;100308.41;213665;1270;72696;-74
2023/01/20 07:01:25;;;;;;;37.70;18.40;;;;;;;0.72;92.81;100304.33;213586;1270;61313;-73
2023/01/20 07:06:24;;;;;;;38.80;21.30;;;;;;;0.71;92.95;100310.73;213654;1272;66390;-73
2023/01/20 07:11:17;;;;;;;34.60;19.00;;;;;;;0.72;92.96;100315.40;213524;1272;61324;-74
2023/01/20 07:16:10;;;;;;;40.50;20.10;;;;;;;0.73;92.58;100314.61;213639;1273;61366;-73
2023/01/20 07:21:09;;;;;;;43.10;20.50;;;;;;;0.74;93.09;100327.10;213704;1272;73697;-73
2023/01/20 07:26:06;;;;;;;40.70;19.50;;;;;;;0.76;92.77;100340.00;213431;1273;64774;-73
2023/01/20 07:31:04;;;;;;;37.80;19.30;;;;;;;0.75;92.63;100349.16;213615;1273;66348;-74
2023/01/20 07:35:57;;;;;;;40.40;22.60;;;;;;;0.79;92.75;100349.02;213580;1273;61403;-73
2023/01/20 07:40:50;;;;;;;43.30;21.20;;;;;;;0.87;92.88;100347.20;213646;1270;61329;-73
2023/01/20 07:45:43;;;;;;;38.90;20.10;;;;;;;0.92;92.77;100348.30;213653;1273;61337;-74
2023/01/20 07:50:36;;;;;;;40.30;21.00;;;;;;;0.98;92.67;100343.13;213464;1272;63304;-73
2023/01/20 07:55:29;;;;;;;39.60;20.70;;;;;;;1.02;92.76;100346.60;213695;1272;67850;-74
2023/01/20 08:00:22;;;;;;;42.30;24.00;;;;;;;1.08;92.66;100346.38;213701;1270;61407;-73
2023/01/20 08:05:15;;;;;;;45.40;23.90;;;;;;;1.15;92.14;100346.36;213642;1272;61300;-75
2023/01/20 08:10:09;;;;;;;48.60;25.20;;;;;;;1.23;92.18;100348.27;213806;1270;73273;-74
2023/01/20 08:15:02;;;;;;;52.00;26.70;;;;;;;1.31;92.25;100344.38;213824;1270;61135;-75
2023/01/20 08:19:56;;;;;;;48.20;25.50;;;;;;;1.41;92.11;100343.54;213526;1270;65850;-74
2023/01/20 08:24:49;;;;;;;45.40;24.30;;;;;;;1.55;91.78;100343.99;213486;1270;61464;-73
2023/01/20 08:29:42;;;;;;;44.70;25.40;;;;;;;1.69;91.52;100341.41;213765;1270;61364;-74
2023/01/20 08:34:35;;;;;;;48.20;24.70;;;;;;;1.83;91.11;100351.62;213821;1270;61399;-73
2023/01/20 08:39:27;;;;;;;50.00;27.10;;;;;;;2.02;91.01;100344.27;213767;1270;61809;-75
2023/01/20 08:44:20;;;;;;;56.40;34.30;;;;;;;2.22;90.33;100337.83;213718;1270;61316;-75
2023/01/20 08:49:18;;;;;;;53.90;31.40;;;;;;;2.25;90.21;100340.69;213804;1270;61881;-74
2023/01/20 08:54:11;;;;;;;;;;;;;;;2.29;89.84;100341.21;213796;1270;73917;-75
2023/01/20 08:59:05;;;;;;;53.00;29.40;;;;;;;2.37;89.82;100345.52;213726;1270;71504;-74
2023/01/20 09:03:58;;;;;;;49.10;28.70;;;;;;;2.32;89.50;100354.86;213757;1270;61319;-78
2023/01/20 09:08:59;;;;;;;46.20;24.80;;;;;;;2.25;89.66;100351.33;213902;1271;67071;-74
2023/01/20 09:13:54;;;;;;;46.80;24.30;;;;;;;2.15;89.69;100354.80;213949;1270;61389;-74
2023/01/20 09:18:48;;;;;;;46.40;24.20;;;;;;;2.08;89.91;100362.50;213794;1271;74231;-74
2023/01/20 09:23:42;;;;;;;34.10;19.40;;;;;;;2.02;89.78;100371.44;213701;1270;73612;-75
2023/01/20 09:28:35;;;;;;;34.80;18.80;;;;;;;1.98;89.88;100380.17;213786;1270;61214;-74
2023/01/20 09:33:28;;;;;;;39.40;21.20;;;;;;;2.00;90.19;100394.09;213776;1270;65911;-74
2023/01/20 09:44:00;;;;;;;39.20;20.70;;;;;;;1.85;89.99;100409.14;213518;1270;73181;-74
2023/01/20 09:54:50;;;;;;;38.30;19.10;;;;;;;1.76;90.46;100421.87;211210;1286;62051;-74
2023/01/20 09:59:53;;;;;;;39.10;20.60;;;;;;;1.76;90.50;100420.50;211056;1282;67051;-73
2023/01/20 10:04:56;;;;;;;41.60;21.00;;;;;;;1.75;90.38;100422.69;211142;1282;61314;-74
2023/01/20 10:09:59;;;;;;;40.40;22.20;;;;;;;1.76;90.53;100423.42;211106;1282;74025;-73
2023/01/20 10:15:02;;;;;;;44.90;23.30;;;;;;;1.84;90.33;100416.29;211553;1282;72650;-74
2023/01/20 10:20:41;;;;;;;47.70;22.40;;;;;;;1.89;90.40;100411.92;211300;1282;61308;-74
2023/01/20 10:25:55;;;;;;;33.00;19.20;;;;;;;1.88;90.08;100410.67;210610;1282;65641;-73
2023/01/20 10:30:49;;;;;;;36.90;20.60;;;;;;;1.90;90.32;100414.66;212360;1277;61424;-73
2023/01/20 10:35:47;;;;;;;33.20;19.00;;;;;;;1.90;89.83;100423.06;212138;1280;74568;-73
2023/01/20 10:40:57;;;;;;;35.60;18.60;;;;;;;1.92;90.02;100429.13;212321;1278;71337;-73
2023/01/20 10:46:18;;;;;;;36.60;21.50;;;;;;;1.95;90.16;100437.98;212220;1279;61363;-73
2023/01/20 10:51:35;;;;;;;40.90;22.20;;;;;;;2.00;90.25;100446.92;212183;1276;67876;-73
2023/01/20 10:56:42;;;;;;;37.10;21.90;;;;;;;2.06;89.85;100442.41;212325;1276;61826;-73
2023/01/20 11:01:35;;;;;;;41.70;23.80;;;;;;;2.14;89.94;100434.92;212983;1270;73883;-74
2023/01/20 11:06:28;;;;;;;36.60;21.90;;;;;;;2.12;89.99;100436.36;213755;1270;71384;-73
2023/01/20 11:11:24;;;;;;;37.20;20.90;;;;;;;2.12;90.10;100438.09;213312;1270;61358;-73
2023/01/20 11:16:23;;;;;;;40.70;24.10;;;;;;;2.14;89.97;100437.65;213483;1272;124492;-73
2023/01/20 11:21:23;;;;;;;35.00;19.80;;;;;;;2.12;90.06;100437.23;213674;1273;61299;-74
2023/01/20 11:26:22;;;;;;;42.00;22.50;;;;;;;2.09;90.04;100441.23;213820;1270;74487;-73
2023/01/20 11:31:21;;;;;;;33.10;19.30;;;;;;;2.14;90.05;100450.66;213645;1270;73471;-74
2023/01/20 11:36:18;;;;;;;34.80;20.40;;;;;;;2.14;89.72;100455.30;213472;1270;61192;-73
2023/01/20 11:41:22;;;;;;;37.20;17.80;;;;;;;2.10;89.81;100454.73;213686;1270;67489;-73
2023/01/20 11:46:15;;;;;;;34.20;19.60;;;;;;;2.02;89.81;100460.69;213653;1270;61281;-73
2023/01/20 11:51:48;;;;;;;39.10;20.40;;;;;;;1.98;90.07;100469.22;213720;1273;73846;-73
2023/01/20 11:56:45;;;;;;;39.10;21.00;;;;;;;1.92;89.93;100470.67;212327;1279;71696;-73
2023/01/20 12:01:53;;;;;;;40.00;22.50;;;;;;;1.86;90.05;100475.02;212354;1280;61314;-73
2023/01/20 12:06:55;;;;;;;38.40;22.50;;;;;;;1.84;90.24;100473.52;212302;1279;67665;-74
2023/01/20 12:12:32;;;;;;;38.00;21.80;;;;;;;1.86;90.15;100481.85;212067;1279;61327;-74
2023/01/20 12:17:31;;;;;;;38.40;21.80;;;;;;;1.87;90.00;100496.23;210977;1285;73508;-73
2023/01/20 12:22:38;;;;;;;38.50;21.10;;;;;;;1.86;89.79;100505.23;210966;1285;72648;-73
2023/01/20 12:27:32;;;;;;;31.80;18.30;;;;;;;1.82;89.72;100519.75;210950;1282;61375;-73
2023/01/20 12:32:27;;;;;;;31.40;18.10;;;;;;;1.82;90.15;100530.01;211796;1279;66568;-73
2023/01/20 12:37:43;;;;;;;34.60;19.40;;;;;;;1.82;90.08;100523.67;212129;1279;61256;-73
2023/01/20 12:42:55;;;;;;;30.90;17.20;;;;;;;1.83;90.12;100518.75;212179;1280;76157;-73
2023/01/20 12:48:04;;;;;;;29.60;17.30;;;;;;;1.88;89.88;100518.17;213086;1270;72514;-73
2023/01/20 12:53:37;;;;;;;28.10;15.40;;;;;;;1.91;90.09;100507.20;213728;1270;61439;-73
2023/01/20 12:58:41;;;;;;;25.10;15.70;;;;;;;1.87;89.96;100516.73;212300;1279;66050;-73
2023/01/20 13:03:58;;;;;;;32.20;17.50;;;;;;;1.84;90.08;100509.42;212189;1279;61397;-73
2023/01/20 13:08:59;;;;;;;32.10;17.80;;;;;;;1.81;89.91;100507.75;211964;1279;75564;-74
2023/01/20 13:14:10;;;;;;;31.10;17.20;;;;;;;1.81;89.98;100505.70;211948;1279;72459;-74
2023/01/20 13:19:22;;;;;;;27.50;15.40;;;;;;;1.78;89.75;100517.17;211859;1278;61435;-73
2023/01/20 13:24:24;;;;;;;29.20;16.30;;;;;;;1.74;89.85;100516.60;211959;1279;66931;-73
2023/01/20 13:29:41;;;;;;;24.80;13.60;;;;;;;1.73;90.05;100507.35;211990;1279;61438;-74
2023/01/20 13:34:39;;;;;;;23.30;14.70;;;;;;;1.77;89.95;100493.35;212753;1272;75519;-73
2023/01/20 13:39:41;;;;;;;24.30;13.60;;;;;;;1.77;89.73;100495.06;213708;1272;72684;-74
2023/01/20 13:44:40;;;;;;;21.10;13.40;;;;;;;1.72;89.97;100500.28;213702;1273;59647;-74
2023/01/20 13:49:54;;;;;;;24.10;13.10;;;;;;;1.62;89.65;100510.58;213641;1274;66883;-73
2023/01/20 13:54:47;;;;;;;20.20;12.00;;;;;;;1.55;89.69;100514.15;213588;1273;61285;-74
2023/01/20 13:59:40;;;;;;;24.80;14.50;;;;;;;1.50;89.99;100514.41;213204;1273;73438;-74
2023/01/20 14:04:33;;;;;;;22.90;13.70;;;;;;;1.47;90.19;100517.52;213442;1274;61396;-74
2023/01/20 14:09:26;;;;;;;23.20;13.60;;;;;;;1.42;90.07;100519.98;213383;1270;61359;-74
2023/01/20 14:14:25;;;;;;;21.40;12.70;;;;;;;1.35;89.77;100522.86;213347;1270;61687;-74
2023/01/20 14:19:24;;;;;;;24.90;14.00;;;;;;;1.30;90.09;100530.33;213513;1271;61686;-74
2023/01/20 14:24:35;;;;;;;23.00;13.50;;;;;;;1.29;90.27;100531.99;213729;1270;74791;-74
2023/01/20 14:29:28;;;;;;;22.80;13.20;;;;;;;1.26;90.19;100536.59;213457;1270;72552;-74
2023/01/20 14:34:31;;;;;;;23.00;14.70;;;;;;;1.22;90.45;100553.48;213406;1271;61416;-74
2023/01/20 14:39:28;;;;;;;25.50;14.10;;;;;;;1.17;90.69;100566.52;213377;1270;65835;-74
2023/01/20 14:44:23;;;;;;;23.10;13.50;;;;;;;1.14;90.45;100563.66;213490;1270;61319;-74
2023/01/20 14:49:19;;;;;;;22.70;13.80;;;;;;;1.12;90.62;100566.79;213485;1270;74382;-74
2023/01/20 14:54:50;;;;;;;28.60;16.10;;;;;;;1.12;90.61;100576.66;213512;1271;72481;-74
2023/01/20 14:59:44;;;;;;;25.70;15.40;;;;;;;1.10;90.67;100588.01;211840;1279;61277;-74
2023/01/20 15:04:37;;;;;;;25.10;14.60;;;;;;;1.10;90.74;100595.53;211794;1279;66813;-74
2023/01/20 15:09:33;;;;;;;21.30;13.50;;;;;;;1.08;90.48;100586.19;211843;1280;61269;-74
2023/01/20 15:14:32;;;;;;;19.70;11.90;;;;;;;1.06;90.50;100592.23;211799;1279;75759;-74
2023/01/20 15:19:33;;;;;;;20.70;12.70;;;;;;;1.04;90.48;100590.27;211655;1282;73170;-74
2023/01/20 15:24:29;;;;;;;22.50;12.10;;;;;;;1.01;90.40;100601.55;211805;1279;61350;-74
2023/01/20 15:29:29;;;;;;;20.40;12.10;;;;;;;1.00;90.45;100607.62;212413;1274;67360;-75
2023/01/20 15:34:24;;;;;;;22.10;12.30;;;;;;;0.99;90.79;100610.46;213484;1270;61356;-74
2023/01/20 15:39:20;;;;;;;33.70;19.20;;;;;;;0.98;90.72;100598.80;213704;1270;74602;-72
2023/01/20 15:44:13;;;;;;;19.00;12.20;;;;;;;0.96;90.46;100605.39;213742;1273;72373;-74
2023/01/20 15:49:10;;;;;;;26.30;16.80;;;;;;;0.94;90.69;100610.02;213738;1275;61343;-74
2023/01/20 15:54:06;;;;;;;22.60;12.10;;;;;;;0.93;90.82;100612.85;213792;1270;67274;-74
2023/01/20 15:58:59;;;;;;;25.10;14.40;;;;;;;0.93;90.91;100609.98;213712;1272;61307;-74
2023/01/20 16:03:53;;;;;;;19.90;12.40;;;;;;;0.94;91.14;100605.77;213691;1270;61319;-73
2023/01/20 16:08:49;;;;;;;23.30;14.90;;;;;;;0.93;90.94;100606.55;213686;1270;72683;-74
2023/01/20 16:13:42;;;;;;;;;;;;;;;0.92;90.74;100608.04;213760;1270;61291;-74
2023/01/20 16:18:34;;;;;;;;;;;;;;;0.89;91.04;100614.35;213665;1273;66631;-74
2023/01/20 16:23:27;;;;;;;;;;;;;;;0.86;90.69;100629.90;213757;1274;61293;-74
2023/01/20 16:28:22;;;;;;;;;;;;;;;0.85;90.79;100647.94;213754;1275;61422;-74
2023/01/20 16:33:17;;;;;;;;;;;;;;;0.81;90.50;100655.76;213811;1276;73019;-74
2023/01/20 16:38:14;;;;;;;;;;;;;;;0.80;90.20;100665.23;213709;1270;61778;-73
2023/01/20 16:43:09;;;;;;;;;;;;;;;0.80;90.34;100680.91;213770;1273;65339;-73
2023/01/20 16:48:04;;;;;;;;;;;;;;;0.77;90.21;100678.56;213819;1270;61291;-73
2023/01/20 16:52:57;;;;;;;;;;;;;;;0.75;90.26;100670.27;213788;1273;61312;-72
2023/01/20 16:57:49;;;;;;;;;;;;;;;0.74;90.09;100665.82;213819;1270;61371;-72
2023/01/20 17:02:42;;;;;;;;;;;;;;;0.75;90.23;100659.20;213793;1270;61277;-70
2023/01/20 17:07:35;;;;;;;;;;;;;;;0.75;90.49;100660.53;213724;1270;61364;-74
2023/01/20 17:12:28;;;;;;;;;;;;;;;0.75;90.06;100671.46;214082;1270;61355;-73
2023/01/20 17:17:21;;;;;;;;;;;;;;;0.75;90.26;100680.03;213876;1271;61416;-73
2023/01/20 17:22:15;;;;;;;;;;;;;;;0.75;90.04;100680.20;213742;1273;61469;-73
2023/01/20 17:27:08;;;;;;;;;;;;;;;0.76;90.47;100679.73;213646;1273;61546;-74
2023/01/20 17:32:01;;;;;;;;;;;;;;;0.77;90.22;100677.71;213815;1271;61495;-74
2023/01/20 17:36:53;;;;;;;;;;;;;;;0.77;90.29;100679.43;213844;1272;61320;-73
2023/01/20 17:41:46;;;;;;;;;;;;;;;0.79;90.56;100682.61;213741;1270;61317;-73
2023/01/20 17:46:39;;;;;;;;;;;;;;;0.80;90.41;100685.17;213581;1274;61757;-73
2023/01/20 17:51:32;;;;;;;;;;;;;;;0.79;90.24;100678.97;214017;1270;61273;-74
2023/01/20 17:56:25;;;;;;;;;;;;;;;0.80;90.37;100683.81;213628;1270;61322;-73
2023/01/20 18:01:23;;;;;;;;;;;;;;;0.80;90.19;100693.91;213799;1270;61501;-74
2023/01/20 18:06:17;;;;;;;;;;;;;;;0.80;90.20;100692.36;213687;1271;74931;-73
2023/01/20 18:11:13;;;;;;;;;;;;;;;0.80;90.25;100702.30;213566;1273;73615;-73
2023/01/20 18:16:11;;;;;;;;;;;;;;;0.82;90.36;100704.77;213677;1274;61339;-73
2023/01/20 18:21:07;;;;;;;;;;;;;;;0.83;90.24;100700.73;213842;1270;64995;-73
2023/01/20 18:26:00;;;;;;;;;;;;;;;0.84;90.33;100697.54;213891;1272;70130;-73
2023/01/20 18:30:58;;;;;;;;;;;;;;;0.84;90.11;100704.39;213700;1273;61374;-74
2023/01/20 18:35:51;;;;;;;;;;;;;;;0.85;90.40;100704.61;213859;1274;72388;-73
2023/01/20 18:40:44;;;;;;;;;;;;;;;0.85;90.20;100710.38;213579;1274;61412;-73
2023/01/20 18:45:37;;;;;;;;;;;;;;;0.85;90.37;100703.23;214084;1273;61281;-73
2023/01/20 18:50:30;;;;;;;;;;;;;;;0.87;90.11;100700.95;213447;1276;61196;-73
2023/01/20 18:55:32;;;;;;;;;;;;;;;0.89;90.35;100698.98;213907;1273;61736;-74
2023/01/20 19:00:25;;;;;;;;;;;;;;;0.88;90.19;100696.92;214305;1272;72762;-74
2023/01/20 19:05:18;;;;;;;;;;;;;;;0.90;90.31;100704.37;213822;1270;63206;-73
2023/01/20 19:10:11;;;;;;;;;;;;;;;0.91;90.15;100710.88;213729;1275;61854;-73
2023/01/20 19:15:04;;;;;;;;;;;;;;;0.91;90.05;100715.54;213786;1270;61290;-73
2023/01/20 19:19:57;;;;;;;;;;;;;;;0.93;90.07;100717.86;213668;1273;61310;-73
2023/01/20 19:24:49;;;;;;;;;;;;;;;0.94;90.17;100719.77;213736;1272;61271;-73
2023/01/20 19:29:42;;;;;;;;;;;;;;;0.94;90.32;100716.17;213811;1272;61932;-73
2023/01/20 19:34:35;;;;;;;;;;;;;;;0.94;90.62;100711.77;213913;1273;61384;-74
2023/01/20 19:39:28;;;;;;;;;;;;;;;0.95;90.49;100716.06;213863;1272;61399;-73
2023/01/20 19:44:20;;;;;;;;;;;;;;;0.95;90.33;100711.45;213835;1273;61311;-73
2023/01/20 19:49:13;;;;;;;;;;;;;;;0.95;90.23;100709.95;213752;1270;61390;-74
2023/01/20 19:54:06;;;;;;;;;;;;;;;0.95;90.12;100707.20;213891;1269;61418;-73
2023/01/20 19:59:00;;;;;;;;;;;;;;;0.95;90.39;100702.08;213783;1273;61301;-73
2023/01/20 20:03:54;;;;;;;;;;;;;;;0.95;90.32;100700.88;213906;1270;61381;-73
2023/01/20 20:08:46;;;;;;;;;;;;;;;0.94;90.16;100694.17;213775;1270;61406;-73
2023/01/20 20:13:39;;;;;;;;;;;;;;;0.95;90.16;100684.67;213591;1270;61322;-74
2023/01/20 20:18:32;;;;;;;;;;;;;;;0.94;89.87;100685.34;213753;1270;61399;-73
2023/01/20 20:23:25;;;;;;;;;;;;;;;0.95;90.08;100699.03;214039;1270;61588;-74
2023/01/20 20:28:17;;;;;;;;;;;;;;;0.96;89.92;100698.90;213709;1270;62053;-73
2023/01/20 20:33:10;;;;;;;;;;;;;;;0.95;89.91;100696.79;213858;1270;61301;-73
2023/01/20 20:38:04;;;;;;;;;;;;;;;0.94;90.06;100684.59;213663;1270;61355;-73
2023/01/20 20:42:56;;;;;;;;;;;;;;;0.93;89.99;100676.88;213726;1270;61317;-74
2023/01/20 20:47:49;;;;;;;;;;;;;;;0.92;90.13;100668.48;213597;1270;61303;-73
2023/01/20 20:52:42;;;;;;;;;;;;;;;0.92;89.73;100668.13;214023;1270;62747;-73
2023/01/20 20:57:35;;;;;;;;;;;;;;;0.92;89.69;100666.25;214958;1270;61153;-74
2023/01/20 21:02:28;;;;;;;;;;;;;;;0.93;89.73;100668.70;213962;1270;61288;-73
2023/01/20 21:07:21;;;;;;;;;;;;;;;0.94;89.44;100680.69;213587;1273;61380;-74
2023/01/20 21:12:14;;;;;;;;;;;;;;;0.93;89.44;100680.48;213473;1270;61317;-73
2023/01/20 21:17:06;;;;;;;;;;;;;;;0.94;89.29;100677.95;213359;1276;61356;-73
2023/01/20 21:21:59;;;;;;;;;;;;;;;0.93;89.44;100668.15;213535;1273;61761;-73
2023/01/20 21:26:52;;;;;;;;;;;;;;;0.91;89.19;100660.55;213229;1270;61929;-73
2023/01/20 21:31:49;;;;;;;;;;;;;;;0.89;89.01;100661.67;213473;1273;61252;-74
2023/01/20 21:36:42;;;;;;;;;;;;;;;0.88;89.25;100665.70;213805;1273;65940;-74
2023/01/20 21:41:34;;;;;;;;;;;;;;;0.89;89.21;100666.75;213386;1273;61301;-74
2023/01/20 21:46:28;;;;;;;;;;;;;;;0.88;89.07;100657.52;214872;1273;61062;-75
2023/01/20 21:56:31;;;;;;;;;;;;;;;0.89;88.90;100659.12;213607;1273;61319;-75
2023/01/20 22:01:25;;;;;;;;;;;;;;;0.88;88.90;100652.39;213656;1273;67089;-75
2023/01/20 22:06:17;;;;;;;;;;;;;;;0.88;88.70;100649.13;214447;1274;61266;-74
2023/01/20 22:11:10;;;;;;;;;;;;;;;0.87;88.69;100651.98;213601;1273;61364;-75
2023/01/20 22:16:03;;;;;;;;;;;;;;;0.88;89.15;100657.48;213581;1270;61303;-74
2023/01/20 22:21:03;;;;;;;;;;;;;;;0.87;88.95;100651.45;213625;1270;61628;-73
2023/01/20 22:25:56;;;;;;;;;;;;;;;0.87;88.61;100641.25;213749;1270;66825;-74
2023/01/20 22:30:49;;;;;;;;;;;;;;;0.87;88.91;100627.74;213695;1273;61306;-73
2023/01/20 22:35:43;;;;;;;;;;;;;;;0.87;88.77;100618.15;213666;1270;61160;-73
2023/01/20 22:40:35;;;;;;;;;;;;;;;0.86;88.81;100619.29;213715;1270;72286;-73
2023/01/20 22:45:29;;;;;;;;;;;;;;;0.86;88.96;100616.95;213868;1270;61285;-73
2023/01/20 22:50:22;;;;;;;;;;;;;;;0.85;89.18;100608.00;214135;1270;61319;-73
2023/01/20 22:55:14;;;;;;;;;;;;;;;0.84;89.17;100607.23;213947;1270;61335;-73
2023/01/20 23:00:07;;;;;;;;;;;;;;;0.82;88.94;100602.88;213649;1270;61398;-73
2023/01/20 23:05:00;;;;;;;;;;;;;;;0.81;89.30;100602.81;213800;1270;61281;-73
2023/01/20 23:09:53;;;;;;;;;;;;;;;0.79;88.68;100598.81;213886;1270;61976;-73
2023/01/20 23:15:01;;;;;;;;;;;;;;;0.78;89.05;100584.42;213673;1271;189753;-73
2023/01/20 23:19:55;;;;;;;;;;;;;;;0.78;88.71;100579.30;214757;1270;61025;-75
2023/01/20 23:24:47;;;;;;;;;;;;;;;0.79;88.94;100588.36;214069;1270;73415;-74
2023/01/20 23:29:40;;;;;;;;;;;;;;;0.79;89.05;100579.02;213662;1270;61304;-74
2023/01/20 23:34:33;;;;;;;;;;;;;;;0.79;88.97;100574.54;214029;1269;61286;-74
2023/01/20 23:39:26;;;;;;;;;;;;;;;0.78;88.76;100564.63;213700;1270;61291;-73